Portada
METAR-TAF:

METAR-TAF

Aeroports :

Shelby County Airport

Alabaster, Alabama, Estats Units d'Amèrica

latitud: 33-10-42N, longitud: 086-46-54W, altitud: 178 m

Observació

L'informe es va fer fa 19 minuts, a les 12:53 UTC
Vent calma
Temperatura 13°C
Humitat 88%
Pressió 1020 hPa
Visibilitat: 16.1 km
Cel ennuvolat a una alçada de 7000 ft

METAR: KEET 261253Z AUTO 00000KT 10SM BKN070 13/11 A3011 RMK AO2 SLP195 T01280111

Hora: 07:12 (13:12 UTC)

Pronòstic

L'informe es va fer fa 1 hora i 33 minuts, a les 11:39 UTC
Pronòstic vàlid del 26 a les 12 UTC al 27 a les 12 UTC
Vent 3 kt del Nord/Nord-Oest
Visibilitat: 10 km
Cel ennuvolat a una alçada de 3500 ft
Cel ennuvolat a una alçada de 6000 ft
A partir de les 26 a les 1800 UTC
Vent 5 kt del Oest
Visibilitat: 10 km
Cel clar
A partir de les 27 a les 0000 UTC
Vent kt del Nord
Visibilitat: 10 km
Cel clar

TAF: KEET 261139Z 2612/2712 34003KT P6SM BKN035 BKN060 FM261800 28005KT P6SM SKC FM270000 00000KT P6SM SKC

Observacions i pronòstics meteorològics de més de 4000 aeroports (METAR i TAF).

Les estacions disponibles són els punts grocs i vermells al mapa.

Posi el ratolí al punt desitjat per veure el nom de l'estació.

Feu clic per veure les observacions i els pronòstics meteorològics.

Per canviar el mapa: feu clic els botons verds amb una creu de color negre per apropar; al botó verd amb un guió per allunyar la imatge; o en les fletxes verdes per a mapes adjacents.


METAR-TAF: